Wright Pat, Ohio
Current Conditions -  °F | °C
As of 8:58 PM on Friday 28 Nov 2014 (Local Time) from KFFO Reporting Station
Clear Clear  
Wind Chill: 24°   Ceiling: Unl
Heat Index: 32°   Visibility: 10mi
Dew Point: 19°   Wind: 8mph
Humidity: 59%   Direction: 170°S
Pressure: 30.13"   Gusts: NA
Location:  39.8169°N, 84.0506°W
Report Text: KFFO 290158Z AUTO 17007KT 10SM CLR 00/M07 A3013 RMK AO2 SLP216 T10021074
Loading
Personal Weather Stations






























Interactive Weather Map New forecast layout! Learn more

10-Day Weather Forecast

Advertisements
Track Severe Weather on mobile